Time;durP1;ratioP1;P1;durP2;ratioP2;P2;SDS_P1;SDS_P2;PMS_P1;PMS_P2;Temp;Humidity;BMP_temperature;BMP_pressure;BME280_temperature;BME280_humidity;BME280_pressure;Samples;Min_cycle;Max_cycle;Signal;HPM_P1;HPM_P2
2022/04/16 00:02:01;;;;;;;246.37;34.47;;;;;;;;;;5000302;28;20656;-53
2022/04/16 00:04:28;;;;;;;68.67;9.90;;;;;;;;;;5008538;28;20875;-51
2022/04/16 00:06:54;;;;;;;63.37;9.67;;;;;;;;;;5003760;28;20289;-52
2022/04/16 00:09:20;;;;;;;102.50;14.43;;;;;;;;;;5014237;28;20702;-53
2022/04/16 00:11:46;;;;;;;119.70;16.73;;;;;;;;;;5001478;28;20216;-52
2022/04/16 00:14:12;;;;;;;146.90;19.53;;;;;;;;;;5000902;28;20180;-52
2022/04/16 00:16:38;;;;;;;112.37;16.30;;;;;;;;;;5003343;28;20214;-52
2022/04/16 00:19:04;;;;;;;80.60;11.63;;;;;;;;;;5006493;28;20668;-52
2022/04/16 00:21:30;;;;;;;101.07;14.47;;;;;;;;;;5008630;28;20647;-52
2022/04/16 00:23:57;;;;;;;167.23;22.77;;;;;;;;;;5009814;28;20220;-52
2022/04/16 00:26:23;;;;;;;117.70;16.43;;;;;;;;;;5008408;28;20358;-51
2022/04/16 00:28:50;;;;;;;231.73;29.83;;;;;;;;;;5004674;28;20965;-52
2022/04/16 00:31:16;;;;;;;104.43;14.10;;;;;;;;;;5000760;28;20220;-52
2022/04/16 00:33:42;;;;;;;168.43;23.13;;;;;;;;;;5001530;28;20265;-52
2022/04/16 00:36:08;;;;;;;98.40;13.33;;;;;;;;;;5004626;28;20660;-52
2022/04/16 00:38:33;;;;;;;118.40;16.30;;;;;;;;;;5005478;28;20267;-51
2022/04/16 00:41:02;;;;;;;155.17;20.53;;;;;;;;;;4993883;28;20701;-53
2022/04/16 00:43:29;;;;;;;162.73;20.97;;;;;;;;;;4994089;28;20208;-52
2022/04/16 00:45:55;;;;;;;178.73;24.07;;;;;;;;;;5011177;28;20219;-52
2022/04/16 00:48:21;;;;;;;87.13;12.00;;;;;;;;;;5003086;28;20764;-52
2022/04/16 00:50:48;;;;;;;179.10;23.33;;;;;;;;;;5003613;28;20802;-52
2022/04/16 00:53:14;;;;;;;92.07;12.57;;;;;;;;;;5002496;28;20584;-52
2022/04/16 00:55:40;;;;;;;158.77;21.83;;;;;;;;;;5003139;28;20220;-52
2022/04/16 00:58:06;;;;;;;174.57;22.43;;;;;;;;;;5009266;28;20569;-52
2022/04/16 01:00:32;;;;;;;201.17;26.40;;;;;;;;;;4996824;28;20220;-53
2022/04/16 01:02:58;;;;;;;156.97;20.57;;;;;;;;;;4998336;28;20216;-52
2022/04/16 01:05:25;;;;;;;150.87;20.30;;;;;;;;;;5005083;28;20759;-51
2022/04/16 01:08:02;;;;;;;74.77;10.57;;;;;;;;;;5010305;28;20185;-52
2022/04/16 01:10:29;;;;;;;85.77;12.03;;;;;;;;;;5009949;28;20284;-52
2022/04/16 01:12:55;;;;;;;200.90;26.83;;;;;;;;;;5000612;28;20228;-52
2022/04/16 01:15:21;;;;;;;138.00;18.50;;;;;;;;;;5003094;28;20211;-52
2022/04/16 01:17:48;;;;;;;131.47;18.33;;;;;;;;;;5007334;28;20259;-52
2022/04/16 01:20:14;;;;;;;126.57;17.20;;;;;;;;;;5003723;28;20192;-53
2022/04/16 01:22:40;;;;;;;130.83;17.57;;;;;;;;;;5002496;28;20220;-53
2022/04/16 01:25:07;;;;;;;95.60;13.00;;;;;;;;;;5007835;28;20214;-51
2022/04/16 01:27:35;;;;;;;157.97;21.40;;;;;;;;;;5007828;28;20232;-53
2022/04/16 01:30:03;;;;;;;111.63;15.50;;;;;;;;;;5000532;28;20310;-52
2022/04/16 01:32:29;;;;;;;95.43;13.80;;;;;;;;;;5007819;28;20204;-52
2022/04/16 01:34:55;;;;;;;135.77;18.60;;;;;;;;;;5009879;28;20735;-52
2022/04/16 01:37:23;;;;;;;48.23;7.07;;;;;;;;;;5017227;28;20278;-52
2022/04/16 01:39:49;;;;;;;89.13;12.63;;;;;;;;;;5007899;28;20704;-52
2022/04/16 01:42:15;;;;;;;109.57;14.97;;;;;;;;;;5007158;28;20215;-52
2022/04/16 01:44:43;;;;;;;122.60;16.77;;;;;;;;;;5009200;28;20220;-53
2022/04/16 01:47:10;;;;;;;57.27;8.57;;;;;;;;;;5020964;28;20597;-52
2022/04/16 01:49:36;;;;;;;72.80;10.47;;;;;;;;;;5016307;28;20216;-53
2022/04/16 01:52:02;;;;;;;152.20;20.80;;;;;;;;;;5013239;28;20262;-52
2022/04/16 01:54:28;;;;;;;117.00;15.93;;;;;;;;;;5008091;28;20226;-52
2022/04/16 01:56:54;;;;;;;97.43;13.73;;;;;;;;;;5012497;28;20746;-51
2022/04/16 01:59:20;;;;;;;98.73;14.07;;;;;;;;;;5009388;28;20484;-52
2022/04/16 02:01:47;;;;;;;123.50;16.73;;;;;;;;;;4992655;28;20319;-53
2022/04/16 02:04:13;;;;;;;133.87;18.03;;;;;;;;;;5004989;28;20216;-53
2022/04/16 02:06:39;;;;;;;154.57;20.53;;;;;;;;;;5002740;28;20226;-53
2022/04/16 02:09:05;;;;;;;78.53;10.60;;;;;;;;;;5016660;28;20258;-52
2022/04/16 02:11:31;;;;;;;154.93;21.80;;;;;;;;;;5017185;28;20176;-53
2022/04/16 02:13:57;;;;;;;133.80;17.87;;;;;;;;;;5009678;28;20711;-53
2022/04/16 02:16:24;;;;;;;60.13;8.90;;;;;;;;;;5010858;28;20273;-52
2022/04/16 02:18:51;;;;;;;172.13;23.00;;;;;;;;;;5009105;28;20589;-52
2022/04/16 02:21:19;;;;;;;96.03;13.27;;;;;;;;;;5004218;28;20307;-53
2022/04/16 02:23:45;;;;;;;81.63;11.70;;;;;;;;;;5012119;28;20255;-52
2022/04/16 02:26:11;;;;;;;61.13;8.83;;;;;;;;;;5020274;28;20988;-53
2022/04/16 02:28:37;;;;;;;69.63;10.20;;;;;;;;;;5014855;28;20208;-53
2022/04/16 02:31:03;;;;;;;170.17;22.17;;;;;;;;;;5000895;28;20299;-54
2022/04/16 02:33:30;;;;;;;171.33;23.13;;;;;;;;;;5013440;28;20307;-52
2022/04/16 02:35:57;;;;;;;126.90;17.07;;;;;;;;;;5006213;28;20914;-52
2022/04/16 02:38:23;;;;;;;89.07;12.70;;;;;;;;;;5012198;28;20250;-52
2022/04/16 02:40:49;;;;;;;66.93;9.57;;;;;;;;;;5008125;28;20318;-54
2022/04/16 02:43:15;;;;;;;203.93;27.20;;;;;;;;;;5006453;28;20236;-54
2022/04/16 02:48:25;;;;;;;84.80;11.97;;;;;;;;;;5015162;28;20214;-52
2022/04/16 02:50:53;;;;;;;117.40;16.20;;;;;;;;;;5000363;28;20212;-53
2022/04/16 02:53:19;;;;;;;125.30;16.83;;;;;;;;;;5014434;28;20222;-54
2022/04/16 02:55:46;;;;;;;77.23;11.10;;;;;;;;;;5015103;28;20277;-52
2022/04/16 02:58:12;;;;;;;55.47;8.27;;;;;;;;;;5017156;28;20220;-53
2022/04/16 03:00:39;;;;;;;96.00;13.33;;;;;;;;;;5009957;28;20307;-53
2022/04/16 03:03:05;;;;;;;129.53;17.20;;;;;;;;;;5005203;28;20277;-54
2022/04/16 03:05:31;;;;;;;93.73;13.13;;;;;;;;;;5003941;28;20265;-53
2022/04/16 03:07:57;;;;;;;119.00;16.70;;;;;;;;;;5008991;28;20846;-54
2022/04/16 03:10:23;;;;;;;61.03;8.87;;;;;;;;;;5024412;28;20216;-53
2022/04/16 03:12:53;;;;;;;104.47;14.60;;;;;;;;;;5008598;28;20604;-53
2022/04/16 03:18:06;;;;;;;65.23;9.03;;;;;;;;;;5020817;28;20312;-53
2022/04/16 03:20:32;;;;;;;84.40;11.83;;;;;;;;;;5007967;28;20196;-53
2022/04/16 03:22:59;;;;;;;217.77;29.63;;;;;;;;;;5012815;28;20188;-53
2022/04/16 03:25:27;;;;;;;68.90;9.77;;;;;;;;;;5012979;28;20231;-54
2022/04/16 03:27:53;;;;;;;145.60;19.60;;;;;;;;;;5003557;28;20314;-53
2022/04/16 03:30:19;;;;;;;68.23;9.70;;;;;;;;;;5016783;28;20291;-53
2022/04/16 03:32:47;;;;;;;84.63;12.03;;;;;;;;;;5005782;28;20220;-53
2022/04/16 03:35:13;;;;;;;84.90;11.77;;;;;;;;;;5003740;28;20318;-52
2022/04/16 03:37:39;;;;;;;76.63;10.83;;;;;;;;;;5008450;28;20857;-53
2022/04/16 03:40:05;;;;;;;108.73;15.07;;;;;;;;;;5006745;28;20757;-53
2022/04/16 03:42:31;;;;;;;116.17;15.87;;;;;;;;;;5005884;28;20220;-53
2022/04/16 03:44:58;;;;;;;81.47;11.43;;;;;;;;;;5010002;28;20666;-53
2022/04/16 03:47:24;;;;;;;99.67;14.10;;;;;;;;;;5009431;28;20205;-53
2022/04/16 03:49:51;;;;;;;143.03;19.40;;;;;;;;;;5020127;28;20651;-53
2022/04/16 03:52:17;;;;;;;30.83;5.00;;;;;;;;;;5010004;28;20222;-53
2022/04/16 04:00:13;;;;;;;102.70;14.00;;;;;;;;;;5008418;28;20290;-52
2022/04/16 04:02:39;;;;;;;128.60;17.57;;;;;;;;;;5005917;28;20220;-51
2022/04/16 04:05:08;;;;;;;171.73;22.90;;;;;;;;;;5006865;28;20188;-52
2022/04/16 04:07:34;;;;;;;163.00;22.30;;;;;;;;;;5007246;28;20261;-52
2022/04/16 04:10:00;;;;;;;153.97;20.93;;;;;;;;;;5010390;28;20227;-52
2022/04/16 04:12:27;;;;;;;123.13;16.70;;;;;;;;;;5002712;28;20656;-53
2022/04/16 04:14:53;;;;;;;73.33;10.60;;;;;;;;;;5009163;28;20218;-53
2022/04/16 04:17:19;;;;;;;114.43;15.57;;;;;;;;;;5007710;28;21862;-52
2022/04/16 04:19:45;;;;;;;94.27;13.17;;;;;;;;;;5002161;28;20207;-53
2022/04/16 04:22:14;;;;;;;112.00;15.27;;;;;;;;;;5009640;28;20212;-52
2022/04/16 04:24:40;;;;;;;90.30;12.60;;;;;;;;;;5009883;28;20328;-52
2022/04/16 04:27:07;;;;;;;112.30;15.30;;;;;;;;;;5005271;28;20255;-52
2022/04/16 04:29:33;;;;;;;97.43;13.63;;;;;;;;;;5007462;28;20184;-52
2022/04/16 04:31:59;;;;;;;228.27;30.67;;;;;;;;;;5009019;28;20180;-53
2022/04/16 04:34:26;;;;;;;110.93;15.07;;;;;;;;;;5012965;28;20216;-53
2022/04/16 04:36:52;;;;;;;90.73;12.53;;;;;;;;;;5007710;28;20707;-51
2022/04/16 04:39:18;;;;;;;156.73;20.60;;;;;;;;;;5006862;28;20693;-52
2022/04/16 04:41:44;;;;;;;58.23;8.27;;;;;;;;;;5016416;28;20276;-52
2022/04/16 04:44:14;;;;;;;120.67;16.13;;;;;;;;;;5012129;28;20184;-52
2022/04/16 04:46:40;;;;;;;70.00;9.90;;;;;;;;;;5010546;28;20644;-52
2022/04/16 04:49:07;;;;;;;123.63;16.87;;;;;;;;;;5017446;28;20248;-52
2022/04/16 04:51:34;;;;;;;78.93;10.93;;;;;;;;;;5003676;28;20216;-52
2022/04/16 04:54:00;;;;;;;118.53;16.27;;;;;;;;;;5017040;28;20223;-52
2022/04/16 04:56:26;;;;;;;89.37;12.77;;;;;;;;;;5008639;28;20208;-51
2022/04/16 04:58:52;;;;;;;101.67;13.77;;;;;;;;;;5009108;28;20365;-52
2022/04/16 05:01:19;;;;;;;71.80;10.20;;;;;;;;;;5004400;28;20211;-52
2022/04/16 05:03:44;;;;;;;167.93;22.23;;;;;;;;;;4996751;28;20270;-52
2022/04/16 05:06:10;;;;;;;123.20;16.40;;;;;;;;;;5007262;28;20643;-51
2022/04/16 05:08:36;;;;;;;99.27;13.63;;;;;;;;;;4999769;28;20188;-51
2022/04/16 05:11:02;;;;;;;119.33;16.03;;;;;;;;;;5005281;28;20181;-52
2022/04/16 05:13:28;;;;;;;164.97;21.97;;;;;;;;;;4997588;28;20216;-52
2022/04/16 05:15:54;;;;;;;135.57;18.20;;;;;;;;;;4999888;28;20247;-52
2022/04/16 05:18:20;;;;;;;105.87;14.47;;;;;;;;;;5003255;28;20270;-52
2022/04/16 05:20:46;;;;;;;111.53;15.07;;;;;;;;;;4995693;28;20216;-52
2022/04/16 05:23:12;;;;;;;100.27;13.67;;;;;;;;;;5004804;28;20188;-53
2022/04/16 05:25:38;;;;;;;116.23;15.60;;;;;;;;;;5001495;28;20221;-52
2022/04/16 05:28:04;;;;;;;198.63;26.23;;;;;;;;;;5001191;28;20259;-52
2022/04/16 05:30:38;;;;;;;55.93;8.20;;;;;;;;;;5003167;28;20220;-52
2022/04/16 05:33:05;;;;;;;136.53;18.47;;;;;;;;;;5008938;28;20214;-52
2022/04/16 05:35:32;;;;;;;72.00;10.53;;;;;;;;;;5001861;28;20208;-52
2022/04/16 05:37:59;;;;;;;96.00;13.27;;;;;;;;;;5010348;28;20306;-52
2022/04/16 05:40:25;;;;;;;67.53;9.77;;;;;;;;;;5008643;28;20296;-52
2022/04/16 05:42:51;;;;;;;119.07;16.50;;;;;;;;;;5007968;28;20247;-53
2022/04/16 05:45:17;;;;;;;109.90;15.20;;;;;;;;;;5001422;28;20739;-52
2022/04/16 05:47:44;;;;;;;95.40;13.30;;;;;;;;;;5015855;28;20707;-52
2022/04/16 05:50:10;;;;;;;97.17;13.63;;;;;;;;;;4996727;28;20184;-55
2022/04/16 05:52:36;;;;;;;66.80;9.53;;;;;;;;;;5015374;28;20305;-55
2022/04/16 05:55:03;;;;;;;72.67;10.47;;;;;;;;;;5012539;28;20267;-54
2022/04/16 05:57:30;;;;;;;102.40;14.03;;;;;;;;;;5011559;28;20220;-55
2022/04/16 05:59:56;;;;;;;130.70;17.70;;;;;;;;;;5003965;28;20217;-55
2022/04/16 06:02:23;;;;;;;157.77;21.50;;;;;;;;;;4997142;28;20188;-55
2022/04/16 06:04:48;;;;;;;121.97;16.77;;;;;;;;;;5001247;28;20486;-55
2022/04/16 06:07:15;;;;;;;109.27;15.10;;;;;;;;;;4997711;28;20218;-55
2022/04/16 06:09:41;;;;;;;136.90;18.73;;;;;;;;;;5002461;28;20307;-56
2022/04/16 06:12:11;;;;;;;119.87;16.27;;;;;;;;;;5002348;28;20213;-56
2022/04/16 06:14:37;;;;;;;88.13;12.27;;;;;;;;;;5005808;28;20600;-55
2022/04/16 06:17:03;;;;;;;66.23;9.50;;;;;;;;;;5002673;28;20840;-55
2022/04/16 06:19:29;;;;;;;127.17;17.93;;;;;;;;;;5004814;28;20217;-55
2022/04/16 06:21:55;;;;;;;160.43;21.67;;;;;;;;;;4994953;28;20845;-56
2022/04/16 06:24:21;;;;;;;92.17;12.97;;;;;;;;;;5001010;28;20208;-55
2022/04/16 06:26:48;;;;;;;125.03;17.30;;;;;;;;;;5002327;28;20656;-56
2022/04/16 06:29:14;;;;;;;142.97;19.40;;;;;;;;;;5005269;28;20214;-55
2022/04/16 06:31:41;;;;;;;163.10;22.03;;;;;;;;;;5004506;28;20273;-55
2022/04/16 06:34:06;;;;;;;109.40;15.07;;;;;;;;;;5009591;28;20325;-55
2022/04/16 06:36:32;;;;;;;104.97;14.53;;;;;;;;;;5002254;28;20220;-56
2022/04/16 06:38:58;;;;;;;117.60;16.30;;;;;;;;;;5009988;28;20229;-55
2022/04/16 06:41:24;;;;;;;113.87;15.57;;;;;;;;;;5005053;28;20204;-54
2022/04/16 06:43:51;;;;;;;156.57;21.87;;;;;;;;;;5009373;28;20180;-55
2022/04/16 06:46:17;;;;;;;151.63;20.83;;;;;;;;;;5007269;28;20246;-56
2022/04/16 06:48:43;;;;;;;126.50;17.63;;;;;;;;;;5002771;28;20695;-56
2022/04/16 06:51:09;;;;;;;124.03;17.87;;;;;;;;;;5010076;28;20514;-56
2022/04/16 06:53:35;;;;;;;92.93;13.57;;;;;;;;;;5013809;28;20180;-55
2022/04/16 06:56:01;;;;;;;65.17;9.53;;;;;;;;;;5016963;28;20247;-55
2022/04/16 06:58:30;;;;;;;74.80;10.93;;;;;;;;;;5017660;28;20470;-54
2022/04/16 07:00:56;;;;;;;119.73;16.90;;;;;;;;;;5010779;28;21002;-56
2022/04/16 07:03:22;;;;;;;90.80;13.10;;;;;;;;;;5008465;28;20216;-56
2022/04/16 07:05:48;;;;;;;97.37;14.37;;;;;;;;;;5012272;28;20239;-55
2022/04/16 07:08:14;;;;;;;106.60;15.20;;;;;;;;;;5004493;28;20248;-55
2022/04/16 07:10:40;;;;;;;80.07;11.70;;;;;;;;;;5012722;28;20677;-56
2022/04/16 07:13:06;;;;;;;81.60;12.20;;;;;;;;;;5007225;28;20693;-56
2022/04/16 07:15:35;;;;;;;86.13;12.57;;;;;;;;;;5009520;28;20216;-56
2022/04/16 07:18:02;;;;;;;129.67;18.47;;;;;;;;;;5009994;28;20228;-56
2022/04/16 07:20:28;;;;;;;134.57;19.20;;;;;;;;;;5006303;28;20195;-53
2022/04/16 07:22:54;;;;;;;146.43;21.00;;;;;;;;;;5002081;28;20205;-53
2022/04/16 07:25:21;;;;;;;109.80;15.73;;;;;;;;;;5009212;28;20254;-53
2022/04/16 07:27:47;;;;;;;131.47;18.33;;;;;;;;;;5005475;28;20242;-53
2022/04/16 07:30:14;;;;;;;103.47;14.87;;;;;;;;;;5000443;28;20238;-53
2022/04/16 07:32:40;;;;;;;80.77;11.80;;;;;;;;;;5018695;28;20318;-53
2022/04/16 07:35:06;;;;;;;118.43;16.57;;;;;;;;;;5010783;28;20191;-53
2022/04/16 07:37:32;;;;;;;85.93;12.33;;;;;;;;;;5012763;28;20254;-53
2022/04/16 07:39:58;;;;;;;106.83;15.37;;;;;;;;;;5015676;28;20217;-53
2022/04/16 07:42:27;;;;;;;91.30;13.60;;;;;;;;;;5003359;28;20508;-53
2022/04/16 07:44:54;;;;;;;102.07;14.63;;;;;;;;;;5007794;28;20359;-54
2022/04/16 07:47:20;;;;;;;62.47;9.37;;;;;;;;;;5012687;28;20402;-55
2022/04/16 07:49:46;;;;;;;60.10;9.13;;;;;;;;;;5025379;28;20442;-55
2022/04/16 07:52:12;;;;;;;75.83;11.23;;;;;;;;;;5020233;28;20220;-55
2022/04/16 07:54:38;;;;;;;68.73;10.03;;;;;;;;;;5010834;28;20337;-51
2022/04/16 07:57:05;;;;;;;68.80;10.37;;;;;;;;;;5019660;28;20227;-51
2022/04/16 07:59:31;;;;;;;96.47;14.23;;;;;;;;;;5011594;28;20184;-55
2022/04/16 08:01:57;;;;;;;56.33;8.57;;;;;;;;;;5014183;28;20196;-55
2022/04/16 08:04:23;;;;;;;87.33;12.77;;;;;;;;;;5015937;28;20212;-55
2022/04/16 08:06:50;;;;;;;72.93;10.93;;;;;;;;;;5013931;28;20220;-55
2022/04/16 08:09:16;;;;;;;73.03;10.90;;;;;;;;;;5019479;28;20829;-54
2022/04/16 08:11:42;;;;;;;85.73;12.63;;;;;;;;;;5016504;28;20219;-54
2022/04/16 08:14:08;;;;;;;65.50;9.60;;;;;;;;;;5019602;28;20219;-55
2022/04/16 08:16:34;;;;;;;59.30;8.90;;;;;;;;;;5024967;28;20939;-54
2022/04/16 08:19:00;;;;;;;66.70;10.07;;;;;;;;;;5021422;28;20236;-54
2022/04/16 08:21:26;;;;;;;74.67;11.13;;;;;;;;;;5019188;28;20425;-55
2022/04/16 08:24:03;;;;;;;72.87;10.90;;;;;;;;;;5022043;28;20250;-55
2022/04/16 08:26:29;;;;;;;55.07;8.67;;;;;;;;;;5020487;28;20779;-54
2022/04/16 08:28:54;;;;;;;88.43;12.77;;;;;;;;;;5015191;28;20181;-54
2022/04/16 08:31:21;;;;;;;63.87;9.63;;;;;;;;;;5020612;28;20254;-55
2022/04/16 08:33:47;;;;;;;29.17;4.73;;;;;;;;;;5023914;28;20246;-54
2022/04/16 08:36:12;;;;;;;51.90;8.07;;;;;;;;;;5014244;28;20570;-55
2022/04/16 08:38:39;;;;;;;62.37;9.10;;;;;;;;;;5021422;28;20233;-54
2022/04/16 08:41:05;;;;;;;76.97;11.23;;;;;;;;;;5021985;28;20188;-54
2022/04/16 08:43:32;;;;;;;40.27;6.50;;;;;;;;;;5022733;28;20232;-55
2022/04/16 08:45:58;;;;;;;56.90;8.70;;;;;;;;;;5017471;28;20221;-53
2022/04/16 08:48:24;;;;;;;55.37;8.57;;;;;;;;;;5022860;28;20227;-54
2022/04/16 08:50:51;;;;;;;102.53;14.93;;;;;;;;;;5010585;28;20243;-55
2022/04/16 08:53:17;;;;;;;154.00;21.30;;;;;;;;;;5008335;28;20188;-54
2022/04/16 08:55:43;;;;;;;75.00;11.20;;;;;;;;;;5012431;28;20679;-54
2022/04/16 08:58:09;;;;;;;57.37;8.87;;;;;;;;;;5014837;28;20628;-55
2022/04/16 09:00:35;;;;;;;59.37;9.30;;;;;;;;;;5016086;28;20807;-55
2022/04/16 09:03:05;;;;;;;163.87;23.17;;;;;;;;;;5014924;28;20311;-55
2022/04/16 09:05:31;;;;;;;54.70;9.00;;;;;;;;;;5013955;28;20251;-54
2022/04/16 09:07:58;;;;;;;88.47;13.20;;;;;;;;;;5023476;28;20566;-55
2022/04/16 09:10:28;;;;;;;84.37;12.20;;;;;;;;;;5018182;28;20350;-55
2022/04/16 09:12:55;;;;;;;89.63;13.33;;;;;;;;;;5016462;28;20245;-55
2022/04/16 09:15:22;;;;;;;88.67;12.93;;;;;;;;;;5014316;28;20254;-54
2022/04/16 09:18:07;;;;;;;87.87;12.97;;;;;;;;;;5012011;28;20220;-56
2022/04/16 09:20:37;;;;;;;77.33;11.77;;;;;;;;;;5016095;28;20577;-55
2022/04/16 09:23:15;;;;;;;75.73;11.27;;;;;;;;;;5021148;28;20184;-56
2022/04/16 09:25:42;;;;;;;47.40;7.53;;;;;;;;;;5017211;28;20265;-55
2022/04/16 09:28:08;;;;;;;98.73;14.70;;;;;;;;;;5019114;28;20211;-55
2022/04/16 09:30:34;;;;;;;53.20;8.53;;;;;;;;;;5023284;28;20263;-55
2022/04/16 09:33:01;;;;;;;61.93;9.60;;;;;;;;;;5015606;28;20223;-55
2022/04/16 09:35:37;;;;;;;104.00;15.60;;;;;;;;;;5018084;28;20538;-55
2022/04/16 09:38:06;;;;;;;69.53;10.67;;;;;;;;;;5023973;28;20211;-55
2022/04/16 09:40:33;;;;;;;45.53;7.33;;;;;;;;;;5023312;28;20736;-56
2022/04/16 09:43:01;;;;;;;96.50;14.73;;;;;;;;;;5023174;28;20227;-55
2022/04/16 09:45:27;;;;;;;77.53;12.37;;;;;;;;;;5017830;28;20633;-55
2022/04/16 09:47:53;;;;;;;66.17;10.50;;;;;;;;;;5019040;28;20227;-54
2022/04/16 09:50:23;;;;;;;72.03;11.73;;;;;;;;;;5015768;28;20183;-56
2022/04/16 09:52:55;;;;;;;71.97;11.37;;;;;;;;;;5014773;28;20249;-56
2022/04/16 09:55:23;;;;;;;86.63;13.43;;;;;;;;;;5016713;28;20243;-56
2022/04/16 09:58:02;;;;;;;70.33;11.27;;;;;;;;;;5020446;28;20223;-56
2022/04/16 10:00:28;;;;;;;86.23;13.50;;;;;;;;;;5019901;28;20300;-56
2022/04/16 10:02:54;;;;;;;160.87;24.30;;;;;;;;;;5015983;28;20584;-55
2022/04/16 10:05:21;;;;;;;69.27;11.87;;;;;;;;;;5022058;28;20282;-55
2022/04/16 10:07:47;;;;;;;96.67;16.27;;;;;;;;;;5015262;28;20883;-55
2022/04/16 10:10:25;;;;;;;116.30;20.97;;;;;;;;;;5011995;28;20770;-54
2022/04/16 10:13:03;;;;;;;43.03;8.43;;;;;;;;;;5012474;28;20311;-53
2022/04/16 10:15:42;;;;;;;75.83;13.93;;;;;;;;;;5023738;28;20219;-54
2022/04/16 10:18:08;;;;;;;80.53;14.93;;;;;;;;;;5018589;28;20306;-53
2022/04/16 10:20:34;;;;;;;179.30;32.90;;;;;;;;;;5009956;28;20722;-53
2022/04/16 10:23:05;;;;;;;114.53;20.37;;;;;;;;;;5007149;28;20188;-54
2022/04/16 10:25:32;;;;;;;116.53;20.87;;;;;;;;;;5011537;28;21795;-53
2022/04/16 10:28:05;;;;;;;110.63;19.60;;;;;;;;;;5011369;28;20212;-53
2022/04/16 10:30:42;;;;;;;108.40;20.00;;;;;;;;;;5013534;28;20213;-53
2022/04/16 10:33:17;;;;;;;127.20;24.73;;;;;;;;;;5008932;28;20277;-53
2022/04/16 10:36:00;;;;;;;79.07;16.17;;;;;;;;;;5012069;28;20318;-52
2022/04/16 10:38:37;;;;;;;113.97;23.63;;;;;;;;;;5018540;28;20200;-54
2022/04/16 10:41:12;;;;;;;164.77;34.30;;;;;;;;;;5010922;28;20649;-53
2022/04/16 10:43:39;;;;;;;168.53;30.97;;;;;;;;;;5011708;28;20212;-53
2022/04/16 10:46:06;;;;;;;103.13;21.43;;;;;;;;;;5013645;28;20665;-53
2022/04/16 10:48:33;;;;;;;94.60;19.17;;;;;;;;;;5006529;28;20238;-53
2022/04/16 10:50:59;;;;;;;133.80;23.83;;;;;;;;;;5011438;28;22076;-54
2022/04/16 10:53:29;;;;;;;102.00;20.40;;;;;;;;;;5007878;28;20438;-54
2022/04/16 10:55:56;;;;;;;59.17;11.93;;;;;;;;;;5018148;28;20200;-53
2022/04/16 10:58:28;;;;;;;108.53;21.17;;;;;;;;;;5014066;28;20216;-54
2022/04/16 11:01:05;;;;;;;115.87;23.57;;;;;;;;;;5020602;28;20214;-54
2022/04/16 11:03:30;;;;;;;84.23;18.27;;;;;;;;;;5020506;28;20214;-54
2022/04/16 11:06:00;;;;;;;185.63;43.90;;;;;;;;;;5009181;28;20720;-52
2022/04/16 11:08:26;;;;;;;65.10;15.73;;;;;;;;;;5017284;28;20195;-54
2022/04/16 11:10:57;;;;;;;59.83;15.13;;;;;;;;;;5027238;28;20325;-53
2022/04/16 11:13:23;;;;;;;49.87;12.67;;;;;;;;;;5027126;28;20349;-53
2022/04/16 11:15:50;;;;;;;76.30;18.43;;;;;;;;;;5022770;28;20671;-53
2022/04/16 11:18:17;;;;;;;56.40;13.73;;;;;;;;;;5031216;28;20231;-53
2022/04/16 11:20:43;;;;;;;32.33;7.53;;;;;;;;;;5029790;28;20732;-54
2022/04/16 11:23:10;;;;;;;69.90;15.57;;;;;;;;;;5049171;28;20180;-53
2022/04/16 11:34:17;;;;;;;53.63;11.07;;;;;;;;;;5031151;28;20265;-53
2022/04/16 11:36:44;;;;;;;56.87;12.30;;;;;;;;;;5033388;28;20223;-53
2022/04/16 11:39:16;;;;;;;65.33;14.27;;;;;;;;;;5031394;28;20238;-53
2022/04/16 11:41:46;;;;;;;68.77;17.53;;;;;;;;;;5029434;28;20212;-53
2022/04/16 11:44:13;;;;;;;57.50;15.00;;;;;;;;;;5027643;28;20224;-53
2022/04/16 11:46:41;;;;;;;43.27;12.23;;;;;;;;;;5030698;28;20216;-53
2022/04/16 11:49:07;;;;;;;113.33;80.17;;;;;;;;;;5031503;28;20219;-53
2022/04/16 11:51:38;;;;;;;180.10;108.17;;;;;;;;;;5030409;28;20496;-53
2022/04/16 11:54:04;;;;;;;143.10;96.13;;;;;;;;;;5029228;28;20302;-53
2022/04/16 11:56:30;;;;;;;165.53;104.07;;;;;;;;;;5012073;28;20193;-53
2022/04/16 11:58:56;;;;;;;167.07;103.77;;;;;;;;;;5023684;28;20231;-53
2022/04/16 12:01:23;;;;;;;165.87;103.67;;;;;;;;;;5023487;28;20370;-52
2022/04/16 12:03:52;;;;;;;179.23;104.43;;;;;;;;;;5033477;28;20204;-53
2022/04/16 12:06:18;;;;;;;196.33;112.20;;;;;;;;;;5025160;28;20266;-53
2022/04/16 12:08:44;;;;;;;225.17;118.50;;;;;;;;;;5031549;28;20220;-54
2022/04/16 12:11:11;;;;;;;245.10;123.93;;;;;;;;;;5031828;28;20181;-53
2022/04/16 12:13:37;;;;;;;270.90;131.63;;;;;;;;;;5030048;28;20208;-54
2022/04/16 12:16:11;;;;;;;271.43;131.83;;;;;;;;;;5030258;28;20231;-54
2022/04/16 12:18:46;;;;;;;216.53;117.10;;;;;;;;;;5016610;28;20222;-54
2022/04/16 12:21:17;;;;;;;200.80;113.40;;;;;;;;;;5030561;28;20573;-54
2022/04/16 12:23:44;;;;;;;235.97;126.97;;;;;;;;;;5030534;28;20580;-54
2022/04/16 12:26:11;;;;;;;47.92;15.10;;;;;;;;;;5031359;28;20235;-54
2022/04/16 12:28:43;;;;;;;91.17;30.30;;;;;;;;;;5029300;28;20271;-54
2022/04/16 12:31:09;;;;;;;59.97;23.50;;;;;;;;;;5029985;28;20243;-54
2022/04/16 12:33:35;;;;;;;43.67;14.63;;;;;;;;;;5028747;28;20665;-54
2022/04/16 12:36:01;;;;;;;57.13;16.90;;;;;;;;;;5032985;28;20253;-54
2022/04/16 12:38:27;;;;;;;78.40;21.63;;;;;;;;;;5030348;28;20660;-54
2022/04/16 12:41:08;;;;;;;99.30;26.00;;;;;;;;;;5029507;28;20724;-54
2022/04/16 12:43:34;;;;;;;69.17;26.30;;;;;;;;;;5028043;28;20239;-54
2022/04/16 12:46:00;;;;;;;85.57;52.37;;;;;;;;;;5030888;28;20220;-54
2022/04/16 12:48:26;;;;;;;44.53;26.00;;;;;;;;;;5028203;28;20226;-54
2022/04/16 12:50:52;;;;;;;78.65;32.53;;;;;;;;;;5029753;28;20227;-54
2022/04/16 12:53:17;;;;;;;60.53;23.10;;;;;;;;;;5030994;28;20190;-54
2022/04/16 12:55:43;;;;;;;63.20;24.00;;;;;;;;;;5029369;28;20235;-54
2022/04/16 12:58:09;;;;;;;107.72;88.53;;;;;;;;;;5028542;28;20301;-54
2022/04/16 13:00:35;;;;;;;115.85;94.72;;;;;;;;;;5015911;28;20243;-55
2022/04/16 13:03:01;;;;;;;214.70;122.87;;;;;;;;;;5029766;28;20216;-54
2022/04/16 13:05:32;;;;;;;137.67;94.87;;;;;;;;;;5030006;28;20203;-54
2022/04/16 13:08:00;;;;;;;151.13;104.63;;;;;;;;;;5019886;28;20673;-54
2022/04/16 13:10:26;;;;;;;174.27;114.53;;;;;;;;;;5035122;28;20612;-54
2022/04/16 13:12:52;;;;;;;226.63;130.73;;;;;;;;;;5029459;28;20383;-55
2022/04/16 13:15:19;;;;;;;275.43;145.90;;;;;;;;;;5026144;28;20895;-54
2022/04/16 13:17:45;;;;;;;261.83;150.83;;;;;;;;;;5019832;28;20307;-55
2022/04/16 13:20:12;;;;;;;351.03;169.50;;;;;;;;;;5017631;28;20246;-54
2022/04/16 13:22:38;;;;;;;322.77;163.20;;;;;;;;;;5030928;28;20226;-54
2022/04/16 13:25:05;;;;;;;53.78;11.45;;;;;;;;;;5026089;28;20204;-54
2022/04/16 13:27:31;;;;;;;42.33;8.10;;;;;;;;;;5024483;28;20280;-54
2022/04/16 13:29:57;;;;;;;59.03;11.10;;;;;;;;;;5028961;28;20224;-54
2022/04/16 13:32:23;;;;;;;52.88;9.95;;;;;;;;;;5032409;28;20182;-54
2022/04/16 13:34:48;;;;;;;55.35;10.05;;;;;;;;;;5033806;28;20577;-54
2022/04/16 13:37:15;;;;;;;56.63;10.05;;;;;;;;;;5028941;28;20223;-54
2022/04/16 13:42:25;;;;;;;55.85;9.90;;;;;;;;;;5025983;28;20258;-54
2022/04/16 13:44:52;;;;;;;60.50;10.65;;;;;;;;;;5027428;28;20687;-54
2022/04/16 13:47:20;;;;;;;55.08;9.80;;;;;;;;;;5029067;28;20346;-54
2022/04/16 13:49:46;;;;;;;56.25;9.98;;;;;;;;;;5020794;28;20216;-54
2022/04/16 13:52:12;;;;;;;66.50;12.30;;;;;;;;;;5031976;28;20728;-54
2022/04/16 13:54:38;;;;;;;48.53;8.88;;;;;;;;;;5025862;28;20212;-54
2022/04/16 13:57:05;;;;;;;38.40;7.38;;;;;;;;;;5028937;28;20410;-54
2022/04/16 13:59:31;;;;;;;65.15;13.07;;;;;;;;;;5025982;28;20246;-54
2022/04/16 14:01:57;;;;;;;58.47;11.55;;;;;;;;;;5017462;28;20188;-55
2022/04/16 14:04:23;;;;;;;46.65;9.77;;;;;;;;;;5033501;28;20607;-55
2022/04/16 14:06:49;;;;;;;45.33;9.27;;;;;;;;;;5040873;28;20266;-55
2022/04/16 14:09:15;;;;;;;58.03;11.98;;;;;;;;;;5028860;28;20240;-54
2022/04/16 14:11:41;;;;;;;60.10;12.95;;;;;;;;;;5028226;28;20215;-55
2022/04/16 14:14:07;;;;;;;58.28;12.60;;;;;;;;;;5029213;28;20175;-55
2022/04/16 14:16:34;;;;;;;64.43;14.88;;;;;;;;;;5028463;28;20228;-55
2022/04/16 14:19:00;;;;;;;47.65;12.00;;;;;;;;;;5028728;28;20243;-56
2022/04/16 14:21:27;;;;;;;63.75;16.00;;;;;;;;;;5028904;28;20216;-56
2022/04/16 14:23:53;;;;;;;48.60;11.60;;;;;;;;;;5029251;28;20242;-55
2022/04/16 14:26:19;;;;;;;62.20;16.23;;;;;;;;;;5029384;28;20239;-56
2022/04/16 14:28:45;;;;;;;60.10;14.88;;;;;;;;;;5028331;28;20172;-56
2022/04/16 14:31:12;;;;;;;56.17;14.85;;;;;;;;;;5028667;28;20215;-56
2022/04/16 14:33:38;;;;;;;49.53;14.23;;;;;;;;;;5029279;28;20274;-55